createdAt,value
2019-03-03T00:00:18.682Z,1.17
2019-03-03T00:02:53.442Z,1.27
2019-03-03T00:05:26.309Z,1.07
2019-03-03T00:08:00.800Z,1.20
2019-03-03T00:10:33.814Z,1.77
2019-03-03T00:13:07.379Z,1.10
2019-03-03T00:15:40.092Z,1.30
2019-03-03T00:18:13.629Z,1.32
2019-03-03T00:20:46.622Z,1.13
2019-03-03T00:23:19.334Z,1.07
2019-03-03T00:25:52.744Z,1.05
2019-03-03T00:28:25.528Z,0.93
2019-03-03T00:30:59.113Z,1.02
2019-03-03T00:33:31.895Z,1.20
2019-03-03T00:36:05.295Z,1.27
2019-03-03T00:38:42.530Z,1.30
2019-03-03T00:41:34.065Z,1.15
2019-03-03T00:44:11.668Z,1.10
2019-03-03T00:46:58.958Z,1.10
2019-03-03T00:49:33.919Z,1.10
2019-03-03T00:52:14.565Z,1.10
2019-03-03T00:54:49.524Z,1.35
2019-03-03T00:57:24.108Z,0.98
2019-03-03T01:00:14.013Z,1.25
2019-03-03T01:02:51.613Z,1.02
2019-03-03T01:05:26.943Z,0.95
2019-03-03T01:08:04.635Z,0.98
2019-03-03T01:10:48.010Z,1.00
2019-03-03T01:13:32.110Z,1.27
2019-03-03T01:16:12.601Z,1.40
2019-03-03T01:18:59.999Z,1.20
2019-03-03T01:21:34.451Z,0.93
2019-03-03T01:24:25.559Z,1.50
2019-03-03T01:26:58.374Z,0.90
2019-03-03T01:29:31.250Z,1.40
2019-03-03T01:32:04.054Z,1.20
2019-03-03T01:34:37.591Z,1.20
2019-03-03T01:37:10.212Z,1.07
2019-03-03T01:39:43.234Z,1.02
2019-03-03T01:42:15.986Z,0.90
2019-03-03T01:44:48.795Z,1.25
2019-03-03T01:47:22.824Z,1.20
2019-03-03T01:49:55.687Z,1.10
2019-03-03T01:52:28.592Z,1.40
2019-03-03T01:55:01.885Z,1.20
2019-03-03T01:57:35.003Z,1.27
2019-03-03T02:00:26.350Z,1.00
2019-03-03T02:03:00.555Z,1.20
2019-03-03T02:05:33.931Z,1.10
2019-03-03T02:08:07.992Z,1.20
2019-03-03T02:10:40.610Z,1.20
2019-03-03T02:13:14.202Z,1.37
2019-03-03T02:15:47.656Z,1.10
2019-03-03T02:18:20.780Z,0.90
2019-03-03T02:20:54.257Z,1.10
2019-03-03T02:23:27.323Z,1.10
2019-03-03T02:26:00.692Z,1.20
2019-03-03T02:28:34.137Z,1.30
2019-03-03T02:31:08.094Z,1.40
2019-03-03T02:33:41.021Z,1.20
2019-03-03T02:36:14.155Z,1.87
2019-03-03T02:38:47.007Z,1.20
2019-03-03T02:41:20.649Z,1.15
2019-03-03T02:43:53.490Z,1.45
2019-03-03T02:46:26.907Z,1.10
2019-03-03T02:48:59.843Z,1.50
2019-03-03T02:51:32.914Z,1.17
2019-03-03T02:54:05.817Z,1.22
2019-03-03T02:56:38.662Z,1.22
2019-03-03T02:59:11.453Z,1.00
2019-03-03T03:01:46.074Z,0.97
2019-03-03T03:04:18.665Z,1.10
2019-03-03T03:06:52.865Z,1.37
2019-03-03T03:09:27.006Z,1.05
2019-03-03T03:12:18.894Z,0.80
2019-03-03T03:14:56.947Z,1.20
2019-03-03T03:17:38.076Z,1.20
2019-03-03T03:20:12.531Z,1.10
2019-03-03T03:22:54.184Z,1.70
2019-03-03T03:25:34.045Z,1.10
2019-03-03T03:28:14.925Z,0.80
2019-03-03T03:30:52.169Z,1.20
2019-03-03T03:33:33.016Z,1.10
2019-03-03T03:36:10.587Z,1.40
2019-03-03T03:38:47.656Z,1.20
2019-03-03T03:41:24.474Z,0.93
2019-03-03T03:44:08.058Z,1.10
2019-03-03T03:46:42.709Z,2.20
2019-03-03T03:49:33.330Z,1.00
2019-03-03T03:52:10.212Z,1.30
2019-03-03T03:55:02.711Z,1.70
2019-03-03T03:57:45.732Z,1.10
2019-03-03T04:00:26.077Z,0.93
2019-03-03T04:03:16.294Z,1.70
2019-03-03T04:05:50.691Z,1.27
2019-03-03T04:08:24.602Z,1.87
2019-03-03T04:10:59.849Z,1.87
2019-03-03T04:13:40.119Z,1.47
2019-03-03T04:16:14.334Z,1.37
2019-03-03T04:18:50.978Z,1.30
2019-03-03T04:21:26.073Z,1.73
2019-03-03T04:24:02.923Z,1.60
2019-03-03T04:26:43.108Z,1.47
2019-03-03T04:29:26.536Z,2.10
2019-03-03T04:32:06.861Z,1.90
2019-03-03T04:34:41.053Z,1.60
2019-03-03T04:37:17.748Z,1.20
2019-03-03T04:39:51.692Z,2.30
2019-03-03T04:42:32.922Z,1.80
2019-03-03T04:45:22.502Z,1.87
2019-03-03T04:48:13.143Z,1.70
2019-03-03T04:50:56.591Z,1.40
2019-03-03T04:53:39.744Z,1.40
2019-03-03T04:56:16.428Z,1.40
2019-03-03T04:59:03.137Z,1.50
2019-03-03T05:01:49.188Z,1.70
2019-03-03T05:04:26.636Z,1.47
2019-03-03T05:07:00.769Z,1.33
2019-03-03T05:09:34.858Z,2.10
2019-03-03T05:12:13.784Z,1.90
2019-03-03T05:14:47.135Z,2.40
2019-03-03T05:17:29.921Z,1.40
2019-03-03T05:20:04.095Z,1.50
2019-03-03T05:22:38.404Z,2.00
2019-03-03T05:25:11.540Z,1.37
2019-03-03T05:27:44.334Z,1.73
2019-03-03T05:30:18.126Z,2.00
2019-03-03T05:32:51.142Z,1.70
2019-03-03T05:35:23.951Z,1.43
2019-03-03T05:37:57.010Z,1.87
2019-03-03T05:40:29.884Z,1.83
2019-03-03T05:43:02.768Z,1.93
2019-03-03T05:45:35.453Z,1.63
2019-03-03T05:48:08.870Z,1.60
2019-03-03T05:50:41.667Z,1.60
2019-03-03T05:53:14.559Z,1.63
2019-03-03T05:55:47.167Z,1.73
2019-03-03T05:58:20.146Z,2.03
2019-03-03T06:00:53.077Z,1.40
2019-03-03T06:03:26.903Z,2.50
2019-03-03T06:06:00.257Z,1.50
2019-03-03T06:08:33.346Z,2.37
2019-03-03T06:11:06.264Z,2.17
2019-03-03T06:13:39.220Z,1.63
2019-03-03T06:16:11.921Z,1.93
2019-03-03T06:18:44.699Z,2.03
2019-03-03T06:21:17.903Z,1.30
2019-03-03T06:23:50.678Z,1.63
2019-03-03T06:26:25.118Z,1.60
2019-03-03T06:28:57.993Z,1.17
2019-03-03T06:31:30.857Z,1.83
2019-03-03T06:34:03.609Z,1.50
2019-03-03T06:36:36.825Z,2.00
2019-03-03T06:39:10.640Z,2.00
2019-03-03T06:41:44.102Z,1.50
2019-03-03T06:44:16.775Z,1.63
2019-03-03T06:46:49.793Z,1.80
2019-03-03T06:49:23.048Z,3.17
2019-03-03T06:51:55.953Z,1.73
2019-03-03T06:54:28.637Z,1.73
2019-03-03T06:57:01.618Z,1.77
2019-03-03T06:59:34.113Z,2.13
2019-03-03T07:02:07.614Z,1.83
2019-03-03T07:04:40.290Z,1.77
2019-03-03T07:07:13.313Z,1.70
2019-03-03T07:09:46.218Z,1.37
2019-03-03T07:12:18.956Z,1.40
2019-03-03T07:14:51.984Z,1.67
2019-03-03T07:17:24.900Z,1.37
2019-03-03T07:19:57.710Z,1.40
2019-03-03T07:22:30.999Z,1.50
2019-03-03T07:25:03.854Z,2.20
2019-03-03T07:27:36.714Z,1.20
2019-03-03T07:30:20.569Z,1.87
2019-03-03T07:32:55.373Z,1.40
2019-03-03T07:35:28.180Z,1.40
2019-03-03T07:38:01.010Z,1.97
2019-03-03T07:40:33.994Z,1.27
2019-03-03T07:43:06.856Z,1.10
2019-03-03T07:45:39.756Z,1.60
2019-03-03T07:48:13.056Z,1.27
2019-03-03T07:50:46.222Z,1.77
2019-03-03T07:53:18.932Z,1.70
2019-03-03T07:55:51.905Z,1.60
2019-03-03T07:58:24.690Z,1.57
2019-03-03T08:00:58.094Z,1.50
2019-03-03T08:03:32.006Z,1.47
2019-03-03T08:06:05.157Z,2.37
2019-03-03T08:08:37.964Z,1.70
2019-03-03T08:11:11.254Z,1.30
2019-03-03T08:13:45.187Z,1.33
2019-03-03T08:16:17.984Z,1.53
2019-03-03T08:18:50.772Z,1.47
2019-03-03T08:21:23.662Z,1.20
2019-03-03T08:23:56.397Z,1.83
2019-03-03T08:26:29.885Z,1.87
2019-03-03T08:29:02.658Z,1.27
2019-03-03T08:31:36.645Z,2.60
2019-03-03T08:34:09.835Z,1.37
2019-03-03T08:36:42.644Z,1.57
2019-03-03T08:39:15.542Z,1.20
2019-03-03T08:41:49.590Z,1.57
2019-03-03T08:44:23.598Z,1.77
2019-03-03T08:47:00.640Z,1.50
2019-03-03T08:49:38.082Z,1.30
2019-03-03T08:52:18.056Z,1.67
2019-03-03T08:54:52.169Z,1.50
2019-03-03T08:57:29.347Z,1.60
2019-03-03T09:00:03.672Z,2.27
2019-03-03T09:02:37.663Z,1.40
2019-03-03T09:05:18.112Z,1.60
2019-03-03T09:07:52.057Z,1.70
2019-03-03T09:10:29.478Z,2.03
2019-03-03T09:13:21.756Z,2.10
2019-03-03T09:15:58.940Z,1.87
2019-03-03T09:18:51.706Z,1.80
2019-03-03T09:21:28.985Z,2.00
2019-03-03T09:24:19.522Z,2.00
2019-03-03T09:26:53.896Z,1.60
2019-03-03T09:29:27.958Z,1.57
2019-03-03T09:32:05.521Z,2.20
2019-03-03T09:34:48.863Z,1.80
2019-03-03T09:37:29.627Z,1.50
2019-03-03T09:40:13.051Z,1.80
2019-03-03T09:42:59.662Z,1.97
2019-03-03T09:45:40.132Z,1.80
2019-03-03T09:48:17.923Z,1.93
2019-03-03T09:50:55.117Z,1.73
2019-03-03T09:53:29.402Z,1.57
2019-03-03T09:56:06.730Z,2.30
2019-03-03T09:58:41.198Z,1.67
2019-03-03T10:01:15.367Z,2.37
2019-03-03T10:04:05.819Z,1.97
2019-03-03T10:06:45.733Z,1.67
2019-03-03T10:09:23.832Z,2.23
2019-03-03T10:12:01.064Z,2.60
2019-03-03T10:14:44.392Z,1.90
2019-03-03T10:17:24.145Z,2.33
2019-03-03T10:19:58.676Z,1.93
2019-03-03T10:22:32.568Z,1.80
2019-03-03T10:25:09.603Z,1.60
2019-03-03T10:27:44.072Z,2.00
2019-03-03T10:30:35.520Z,1.83
2019-03-03T10:33:10.143Z,1.93
2019-03-03T10:35:50.269Z,1.83
2019-03-03T10:38:35.854Z,1.80
2019-03-03T10:41:03.238Z,2.40
2019-03-03T10:43:37.370Z,2.13
2019-03-03T10:46:11.431Z,2.07
2019-03-03T10:48:45.647Z,3.20
2019-03-03T10:51:28.577Z,2.40
2019-03-03T10:54:02.882Z,1.93
2019-03-03T10:56:36.904Z,2.10
2019-03-03T10:59:11.515Z,1.90
2019-03-03T11:01:45.526Z,2.40
2019-03-03T11:04:19.698Z,2.10
2019-03-03T11:07:08.831Z,2.20
2019-03-03T11:09:43.179Z,2.33
2019-03-03T11:12:20.465Z,2.10
2019-03-03T11:14:54.623Z,2.33
2019-03-03T11:17:28.985Z,2.17
2019-03-03T11:20:05.720Z,2.70
2019-03-03T11:22:42.447Z,2.23
2019-03-03T11:25:33.002Z,1.87
2019-03-03T11:28:10.291Z,2.37
2019-03-03T11:30:45.964Z,2.90
2019-03-03T11:33:26.231Z,3.70
2019-03-03T11:36:09.516Z,2.10
2019-03-03T11:38:52.641Z,1.90
2019-03-03T11:41:30.903Z,2.27
2019-03-03T11:44:11.112Z,2.13
2019-03-03T11:46:51.392Z,2.40
2019-03-03T11:49:34.797Z,1.90
2019-03-03T11:52:09.218Z,2.37
2019-03-03T11:54:43.348Z,2.67
2019-03-03T11:57:17.497Z,2.57
2019-03-03T12:00:01.606Z,2.40
2019-03-03T12:02:38.360Z,2.30
2019-03-03T12:05:17.400Z,2.67
2019-03-03T12:08:00.775Z,2.83
2019-03-03T12:10:38.058Z,2.90
2019-03-03T12:13:11.887Z,2.70
2019-03-03T12:15:55.442Z,3.27
2019-03-03T12:18:46.159Z,2.70
2019-03-03T12:21:32.779Z,3.00
2019-03-03T12:24:15.786Z,3.43
2019-03-03T12:27:03.015Z,2.20
2019-03-03T12:29:40.627Z,2.40
2019-03-03T12:32:14.739Z,1.93
2019-03-03T12:34:58.665Z,2.50
2019-03-03T12:37:38.415Z,2.00
2019-03-03T12:40:19.154Z,2.83
2019-03-03T12:43:08.594Z,2.13
2019-03-03T12:45:58.931Z,3.00
2019-03-03T12:48:45.129Z,1.80
2019-03-03T12:51:19.447Z,2.17
2019-03-03T12:54:02.369Z,2.40
2019-03-03T12:56:53.197Z,2.50
2019-03-03T12:59:27.154Z,2.67
2019-03-03T13:02:16.860Z,2.73
2019-03-03T13:04:53.972Z,3.80
2019-03-03T13:07:28.385Z,3.07
2019-03-03T13:10:11.516Z,2.60
2019-03-03T13:12:56.097Z,2.20
2019-03-03T13:15:49.028Z,2.27
2019-03-03T13:18:39.734Z,2.50
2019-03-03T13:21:16.781Z,2.37
2019-03-03T13:24:03.201Z,2.77
2019-03-03T13:26:49.668Z,3.40
2019-03-03T13:29:33.134Z,1.90
2019-03-03T13:32:25.666Z,2.80
2019-03-03T13:35:00.344Z,2.43
2019-03-03T13:37:44.249Z,2.13
2019-03-03T13:40:24.412Z,4.07
2019-03-03T13:42:58.424Z,2.43
2019-03-03T13:45:32.501Z,2.30
2019-03-03T13:48:05.163Z,2.63
2019-03-03T13:50:38.150Z,2.63
2019-03-03T13:53:10.904Z,2.63
2019-03-03T13:55:44.101Z,2.40
2019-03-03T13:58:16.886Z,2.50
2019-03-03T14:00:50.757Z,2.87
2019-03-03T14:03:23.876Z,2.47
2019-03-03T14:05:57.120Z,2.97
2019-03-03T14:08:30.237Z,2.30
2019-03-03T14:11:03.928Z,2.07
2019-03-03T14:13:36.659Z,2.40
2019-03-03T14:16:09.505Z,2.10
2019-03-03T14:18:42.213Z,2.90
2019-03-03T14:21:15.208Z,2.37
2019-03-03T14:23:49.480Z,2.07
2019-03-03T14:26:22.656Z,2.00
2019-03-03T14:28:55.435Z,2.17
2019-03-03T14:31:28.305Z,3.00
2019-03-03T14:34:01.212Z,3.10
2019-03-03T14:36:34.276Z,2.40
2019-03-03T14:39:07.803Z,2.30
2019-03-03T14:41:40.814Z,1.70
2019-03-03T14:44:13.515Z,2.10
2019-03-03T14:46:46.295Z,2.07
2019-03-03T14:49:18.975Z,2.20
2019-03-03T14:51:52.295Z,2.30
2019-03-03T14:54:25.531Z,3.00
2019-03-03T14:56:58.119Z,2.40
2019-03-03T14:59:31.312Z,2.33
2019-03-03T15:02:04.116Z,2.40
2019-03-03T15:04:37.945Z,2.00
2019-03-03T15:07:11.054Z,2.73
2019-03-03T15:09:44.284Z,2.20
2019-03-03T15:12:17.244Z,2.30
2019-03-03T15:14:50.451Z,3.80
2019-03-03T15:17:23.204Z,4.00
2019-03-03T15:19:57.423Z,1.90
2019-03-03T15:22:30.156Z,2.30
2019-03-03T15:25:03.204Z,3.93
2019-03-03T15:27:36.114Z,2.67
2019-03-03T15:30:16.678Z,2.60
2019-03-03T15:32:49.724Z,2.50
2019-03-03T15:35:23.730Z,2.30
2019-03-03T15:37:56.340Z,1.73
2019-03-03T15:40:32.515Z,2.63
2019-03-03T15:43:05.361Z,2.50
2019-03-03T15:45:38.653Z,2.40
2019-03-03T15:48:11.489Z,2.53
2019-03-03T15:50:44.474Z,2.30
2019-03-03T15:53:17.373Z,2.13
2019-03-03T15:55:50.638Z,1.73
2019-03-03T15:58:23.486Z,2.37
2019-03-03T16:00:56.747Z,2.77
2019-03-03T16:03:29.489Z,2.50
2019-03-03T16:06:02.552Z,2.10
2019-03-03T16:08:35.231Z,3.40
2019-03-03T16:11:08.361Z,2.07
2019-03-03T16:13:40.994Z,2.37
2019-03-03T16:16:14.432Z,2.23
2019-03-03T16:18:47.174Z,3.37
2019-03-03T16:21:20.156Z,2.33
2019-03-03T16:23:52.715Z,2.30
2019-03-03T16:26:25.429Z,2.47
2019-03-03T16:28:58.316Z,3.03
2019-03-03T16:31:31.095Z,2.33
2019-03-03T16:34:05.016Z,3.37
2019-03-03T16:36:37.887Z,1.83
2019-03-03T16:39:11.047Z,2.30
2019-03-03T16:41:43.654Z,2.10
2019-03-03T16:44:16.943Z,3.20
2019-03-03T16:46:49.397Z,2.77
2019-03-03T16:49:23.835Z,2.70
2019-03-03T16:51:56.631Z,2.30
2019-03-03T16:54:29.392Z,2.20
2019-03-03T16:57:03.370Z,2.07
2019-03-03T16:59:35.979Z,2.43
2019-03-03T17:02:08.959Z,2.20
2019-03-03T17:04:41.754Z,2.10
2019-03-03T17:07:14.734Z,2.90
2019-03-03T17:09:47.526Z,2.57
2019-03-03T17:12:20.488Z,2.03
2019-03-03T17:14:53.394Z,2.50
2019-03-03T17:17:26.208Z,2.43
2019-03-03T17:19:59.312Z,2.30
2019-03-03T17:22:32.087Z,3.00
2019-03-03T17:25:04.818Z,2.10
2019-03-03T17:27:37.605Z,2.43
2019-03-03T17:30:18.846Z,2.17
2019-03-03T17:32:51.582Z,2.60
2019-03-03T17:35:24.567Z,2.30
2019-03-03T17:37:57.638Z,2.27
2019-03-03T17:40:30.712Z,2.30
2019-03-03T17:43:03.527Z,2.20
2019-03-03T17:45:36.415Z,2.37
2019-03-03T17:48:09.102Z,2.20
2019-03-03T17:50:42.155Z,2.30
2019-03-03T17:53:14.873Z,2.40
2019-03-03T17:55:47.830Z,2.47
2019-03-03T17:58:20.629Z,2.93
2019-03-03T18:00:53.689Z,2.17
2019-03-03T18:03:26.390Z,1.90
2019-03-03T18:05:59.445Z,2.83
2019-03-03T18:08:32.266Z,2.87
2019-03-03T18:11:05.140Z,3.40
2019-03-03T18:13:38.199Z,3.00
2019-03-03T18:16:11.098Z,2.57
2019-03-03T18:18:43.934Z,2.37
2019-03-03T18:21:17.229Z,2.50
2019-03-03T18:23:50.161Z,3.20
2019-03-03T18:26:23.733Z,3.07
2019-03-03T18:28:56.479Z,3.50
2019-03-03T18:31:29.153Z,3.17
2019-03-03T18:34:02.012Z,3.67
2019-03-03T18:36:35.857Z,2.70
2019-03-03T18:39:09.975Z,4.00
2019-03-03T18:41:42.642Z,3.50
2019-03-03T18:44:15.581Z,2.57
2019-03-03T18:46:48.416Z,2.90
2019-03-03T18:49:21.380Z,3.57
2019-03-03T18:51:54.156Z,3.00
2019-03-03T18:54:27.197Z,2.67
2019-03-03T18:56:59.933Z,3.97
2019-03-03T18:59:32.809Z,2.90
2019-03-03T19:02:05.481Z,2.70
2019-03-03T19:04:38.451Z,2.97
2019-03-03T19:07:11.659Z,2.70
2019-03-03T19:09:44.455Z,3.87
2019-03-03T19:12:17.514Z,3.20
2019-03-03T19:14:50.223Z,3.57
2019-03-03T19:17:23.196Z,3.90
2019-03-03T19:19:55.855Z,3.93
2019-03-03T19:22:28.713Z,3.80
2019-03-03T19:25:01.370Z,3.10
2019-03-03T19:27:34.323Z,3.73
2019-03-03T19:30:08.335Z,3.57
2019-03-03T19:32:43.772Z,4.20
2019-03-03T19:35:15.569Z,5.17
2019-03-03T19:37:48.651Z,4.80
2019-03-03T19:40:21.866Z,3.40
2019-03-03T19:42:54.696Z,3.20
2019-03-03T19:45:32.603Z,3.33
2019-03-03T19:48:05.558Z,3.80
2019-03-03T19:50:38.500Z,3.23
2019-03-03T19:53:11.339Z,2.93
2019-03-03T19:55:44.148Z,2.30
2019-03-03T19:58:17.183Z,3.53
2019-03-03T20:00:50.337Z,3.33
2019-03-03T20:03:24.088Z,3.30
2019-03-03T20:05:57.630Z,4.00
2019-03-03T20:08:30.719Z,2.33
2019-03-03T20:11:03.821Z,2.60
2019-03-03T20:13:36.870Z,2.00
2019-03-03T20:16:09.549Z,2.50
2019-03-03T20:18:42.393Z,3.27
2019-03-03T20:21:15.067Z,3.13
2019-03-03T20:23:48.114Z,2.40
2019-03-03T20:26:21.016Z,3.30
2019-03-03T20:28:53.553Z,2.63
2019-03-03T20:31:26.380Z,2.40
2019-03-03T20:33:59.277Z,2.40
2019-03-03T20:36:32.248Z,2.30
2019-03-03T20:39:05.136Z,3.00
2019-03-03T20:41:38.291Z,2.50
2019-03-03T20:44:11.097Z,2.60
2019-03-03T20:46:44.163Z,3.07
2019-03-03T20:49:17.071Z,2.77
2019-03-03T20:51:49.618Z,2.43
2019-03-03T20:54:22.418Z,2.17
2019-03-03T20:56:55.210Z,2.30
2019-03-03T20:59:28.081Z,2.50
2019-03-03T21:02:00.990Z,2.47
2019-03-03T21:04:33.753Z,2.77
2019-03-03T21:07:06.730Z,2.23
2019-03-03T21:09:39.542Z,2.70
2019-03-03T21:12:12.333Z,2.30
2019-03-03T21:14:45.179Z,2.57
2019-03-03T21:17:17.871Z,1.90
2019-03-03T21:19:50.614Z,1.80
2019-03-03T21:22:24.267Z,2.20
2019-03-03T21:24:57.267Z,2.30
2019-03-03T21:27:30.075Z,2.23
2019-03-03T21:30:02.828Z,1.90
2019-03-03T21:32:35.795Z,2.53
2019-03-03T21:35:10.416Z,2.30
2019-03-03T21:37:43.261Z,1.90
2019-03-03T21:40:23.566Z,2.10
2019-03-03T21:42:56.413Z,2.00
2019-03-03T21:45:29.618Z,1.70
2019-03-03T21:48:02.516Z,1.77
2019-03-03T21:50:35.317Z,2.03
2019-03-03T21:53:08.226Z,2.50
2019-03-03T21:55:40.887Z,1.70
2019-03-03T21:58:13.839Z,2.40
2019-03-03T22:00:46.652Z,1.73
2019-03-03T22:03:19.550Z,2.07
2019-03-03T22:05:52.597Z,1.70
2019-03-03T22:08:25.244Z,1.83
2019-03-03T22:10:58.030Z,1.70
2019-03-03T22:13:30.640Z,1.50
2019-03-03T22:16:03.343Z,1.63
2019-03-03T22:18:36.293Z,1.77
2019-03-03T22:21:09.113Z,2.27
2019-03-03T22:23:42.691Z,2.13
2019-03-03T22:26:15.485Z,2.03
2019-03-03T22:28:48.441Z,1.60
2019-03-03T22:31:21.134Z,1.73
2019-03-03T22:33:54.004Z,1.77
2019-03-03T22:36:26.669Z,1.40
2019-03-03T22:38:59.583Z,1.70
2019-03-03T22:41:32.498Z,2.37
2019-03-03T22:44:05.350Z,1.70
2019-03-03T22:46:38.150Z,1.23
2019-03-03T22:49:10.809Z,1.53
2019-03-03T22:51:43.626Z,1.67
2019-03-03T22:54:16.421Z,1.70
2019-03-03T22:56:49.143Z,1.73
2019-03-03T22:59:21.830Z,1.70
2019-03-03T23:01:54.802Z,1.40
2019-03-03T23:04:47.545Z,1.83
2019-03-03T23:07:25.169Z,1.80
2019-03-03T23:10:11.408Z,1.80
2019-03-03T23:12:51.752Z,1.63
2019-03-03T23:15:41.834Z,1.70
2019-03-03T23:18:28.825Z,1.40
2019-03-03T23:21:18.454Z,1.40
2019-03-03T23:24:08.383Z,1.53
2019-03-03T23:26:41.899Z,1.63
2019-03-03T23:29:14.700Z,1.73
2019-03-03T23:31:48.487Z,2.27
2019-03-03T23:34:21.264Z,2.17
2019-03-03T23:36:54.040Z,2.27
2019-03-03T23:39:28.037Z,1.43
2019-03-03T23:42:00.845Z,2.23
2019-03-03T23:44:33.517Z,1.47
2019-03-03T23:47:06.410Z,1.70
2019-03-03T23:49:39.194Z,1.70
2019-03-03T23:52:12.550Z,3.00
2019-03-03T23:54:45.350Z,1.50
2019-03-03T23:57:18.277Z,2.20
2019-03-03T23:59:50.855Z,2.00
